Time;durP1;ratioP1;P1;durP2;ratioP2;P2;SDS_P1;SDS_P2;PMS_P1;PMS_P2;Temp;Humidity;BMP_temperature;BMP_pressure;BME280_temperature;BME280_humidity;BME280_pressure;Samples;Min_cycle;Max_cycle;Signal;HPM_P1;HPM_P2
2022/06/16 00:01:39;;;;;;;7.18;4.88;;;;;;;16.73;59.86;101779.00;5032207;28;20037;-68
2022/06/16 00:04:04;;;;;;;7.75;3.55;;;;;;;16.74;60.05;101783.34;5031951;28;20054;-68
2022/06/16 00:06:30;;;;;;;6.60;4.28;;;;;;;16.73;60.52;101787.09;5031888;28;20472;-68
2022/06/16 00:08:55;;;;;;;7.47;4.70;;;;;;;16.70;60.51;101780.25;5031965;28;20060;-68
2022/06/16 00:11:21;;;;;;;9.50;4.30;;;;;;;16.68;60.40;101773.44;5031840;28;20071;-68
2022/06/16 00:13:48;;;;;;;15.85;5.07;;;;;;;16.64;60.48;101776.56;5031922;28;20053;-68
2022/06/16 00:16:13;;;;;;;9.32;5.20;;;;;;;16.61;60.88;101779.69;5031940;28;20033;-68
2022/06/16 00:18:40;;;;;;;9.57;4.68;;;;;;;16.54;60.86;101772.66;5031710;28;20029;-68
2022/06/16 00:21:07;;;;;;;8.20;4.90;;;;;;;16.54;60.92;101781.56;5031725;28;20127;-68
2022/06/16 00:23:32;;;;;;;8.05;4.10;;;;;;;16.52;60.50;101783.66;5031703;28;20469;-68
2022/06/16 00:25:58;;;;;;;9.32;4.10;;;;;;;16.47;61.25;101770.00;5030185;28;20037;-68
2022/06/16 00:28:24;;;;;;;7.65;4.35;;;;;;;16.46;61.02;101772.91;5031402;28;20052;-68
2022/06/16 00:30:49;;;;;;;10.75;4.75;;;;;;;16.44;60.87;101776.63;5031849;28;20388;-68
2022/06/16 00:33:14;;;;;;;10.00;4.47;;;;;;;16.44;60.66;101789.28;5031779;28;20033;-68
2022/06/16 00:35:40;;;;;;;8.32;4.75;;;;;;;16.41;61.22;101782.44;5031578;28;20029;-68
2022/06/16 00:38:05;;;;;;;10.48;5.20;;;;;;;16.38;60.91;101782.06;5031441;28;20104;-68
2022/06/16 00:40:30;;;;;;;8.02;4.32;;;;;;;16.37;61.33;101788.47;5031408;28;20041;-68
2022/06/16 00:42:56;;;;;;;10.68;4.82;;;;;;;16.34;61.44;101786.19;5031603;28;20065;-68
2022/06/16 00:45:44;;;;;;;8.40;4.50;;;;;;;16.30;61.34;101793.88;5031271;28;20064;-68
2022/06/16 00:48:15;;;;;;;9.90;4.60;;;;;;;16.27;60.91;101796.16;5031151;28;20033;-69
2022/06/16 00:50:42;;;;;;;10.70;4.80;;;;;;;16.24;61.33;101791.19;5031153;28;20109;-68
2022/06/16 00:53:07;;;;;;;8.30;4.20;;;;;;;16.17;61.30;101796.59;5031026;28;20033;-68
2022/06/16 00:55:33;;;;;;;9.10;5.00;;;;;;;16.12;61.36;101782.94;5030649;28;20037;-68
2022/06/16 00:58:00;;;;;;;6.82;4.82;;;;;;;16.11;61.41;101798.28;5031149;28;20022;-68
2022/06/16 01:00:33;;;;;;;7.93;4.72;;;;;;;16.07;61.70;101807.78;5030759;28;20044;-68
2022/06/16 01:02:58;;;;;;;5.90;4.03;;;;;;;16.00;62.37;101799.72;5030956;28;20104;-68
2022/06/16 01:05:24;;;;;;;8.98;4.80;;;;;;;15.89;62.05;101786.09;5031272;28;20116;-68
2022/06/16 01:07:50;;;;;;;8.73;4.43;;;;;;;15.95;61.90;101810.28;5030765;28;20021;-68
2022/06/16 01:10:17;;;;;;;7.32;5.32;;;;;;;15.91;62.15;101792.91;5030996;28;20060;-68
2022/06/16 01:15:35;;;;;;;9.32;5.07;;;;;;;15.85;62.70;101801.84;5031101;28;20044;-68
2022/06/16 01:18:26;;;;;;;10.82;4.63;;;;;;;15.81;62.67;101805.97;5030661;28;20021;-68
2022/06/16 01:21:17;;;;;;;7.47;4.72;;;;;;;15.77;62.72;101804.72;5030579;28;20037;-68
2022/06/16 01:23:57;;;;;;;7.82;4.03;;;;;;;15.72;62.89;101807.22;5030500;28;20025;-68
2022/06/16 01:26:39;;;;;;;8.25;4.93;;;;;;;15.69;63.14;101811.16;5030340;28;20040;-68
2022/06/16 01:29:29;;;;;;;8.85;4.53;;;;;;;15.57;63.35;101810.06;5030403;28;20022;-68
2022/06/16 01:32:16;;;;;;;7.78;4.68;;;;;;;15.62;63.26;101817.53;5029085;28;20542;-68
2022/06/16 01:34:54;;;;;;;12.85;4.93;;;;;;;15.61;63.52;101829.31;5030266;28;20419;-68
2022/06/16 01:37:23;;;;;;;7.72;4.68;;;;;;;15.57;63.69;101829.72;5030228;28;20461;-68
2022/06/16 01:40:03;;;;;;;7.63;4.28;;;;;;;15.56;63.49;101837.97;5030220;28;20107;-68
2022/06/16 01:42:54;;;;;;;6.55;3.90;;;;;;;15.50;63.65;101830.75;5030121;28;20061;-68
2022/06/16 01:45:30;;;;;;;11.32;4.80;;;;;;;15.45;64.21;101834.03;5029945;28;20508;-68
2022/06/16 01:47:57;;;;;;;8.15;4.82;;;;;;;15.41;64.50;101830.13;5029826;28;20046;-68
2022/06/16 01:50:30;;;;;;;7.88;4.55;;;;;;;15.38;64.38;101837.75;5030021;28;20040;-68
2022/06/16 01:53:06;;;;;;;8.30;4.72;;;;;;;15.32;64.22;101834.03;5029970;28;20075;-68
2022/06/16 01:55:37;;;;;;;9.27;4.75;;;;;;;15.30;64.69;101836.06;5029949;28;20029;-68
2022/06/16 01:58:15;;;;;;;12.50;5.10;;;;;;;15.25;64.56;101833.19;5030019;28;20030;-68
2022/06/16 02:00:43;;;;;;;6.35;3.90;;;;;;;15.21;65.50;101834.63;5029831;28;20071;-68
2022/06/16 02:03:21;;;;;;;9.30;4.45;;;;;;;15.14;64.38;101826.53;5029893;28;20028;-68
2022/06/16 02:05:55;;;;;;;8.25;4.05;;;;;;;15.11;64.74;101827.75;5029777;28;20357;-68
2022/06/16 02:08:31;;;;;;;9.20;4.60;;;;;;;15.07;65.08;101828.41;5028766;28;20053;-68
2022/06/16 02:11:03;;;;;;;5.35;3.92;;;;;;;15.01;65.87;101835.41;5029618;28;20036;-68
2022/06/16 02:13:34;;;;;;;10.82;5.18;;;;;;;14.96;65.96;101845.06;5029629;28;20376;-68
2022/06/16 02:16:13;;;;;;;8.27;4.87;;;;;;;14.94;65.83;101834.56;5029579;28;20095;-68
2022/06/16 02:18:41;;;;;;;9.07;4.50;;;;;;;14.88;66.67;101819.22;5029397;28;20021;-68
2022/06/16 02:21:22;;;;;;;9.52;4.25;;;;;;;14.89;66.07;101831.63;5029567;28;20104;-68
2022/06/16 02:23:48;;;;;;;10.75;5.38;;;;;;;14.85;66.72;101828.50;5029454;28;20039;-67
2022/06/16 02:26:15;;;;;;;8.05;4.93;;;;;;;14.82;66.48;101828.09;5029631;28;20041;-68
2022/06/16 02:28:53;;;;;;;8.23;4.80;;;;;;;14.73;66.24;101824.75;5029321;28;20079;-68
2022/06/16 02:31:57;;;;;;;10.80;4.70;;;;;;;14.79;65.89;101833.88;5029315;28;20059;-68
2022/06/16 02:34:33;;;;;;;7.57;4.63;;;;;;;14.67;66.97;101826.41;5008057;28;20122;-68
2022/06/16 02:37:09;;;;;;;11.60;5.97;;;;;;;14.61;67.98;101843.28;5029229;28;20037;-68
2022/06/16 02:39:55;;;;;;;8.75;4.90;;;;;;;14.51;67.85;101845.47;5029191;28;20025;-68
2022/06/16 02:42:47;;;;;;;9.73;4.70;;;;;;;14.56;67.37;101869.91;5029290;28;20025;-68
2022/06/16 02:45:12;;;;;;;;;;;;;;;14.62;66.45;101874.50;5029742;28;20123;-68
2022/06/16 02:48:03;;;;;;;10.15;5.50;;;;;;;14.66;68.03;101878.41;5028719;28;20015;-68
2022/06/16 02:50:28;;;;;;;8.80;4.82;;;;;;;14.65;69.28;101882.16;5028972;28;20021;-68
2022/06/16 02:53:45;;;;;;;14.63;5.50;;;;;;;14.58;68.40;101881.28;5029050;28;20432;-68
2022/06/16 02:56:38;;;;;;;10.25;4.55;;;;;;;14.44;68.55;101872.28;5028987;28;20347;-68
2022/06/16 02:59:13;;;;;;;8.77;5.72;;;;;;;14.35;69.66;101878.81;5026530;28;20041;-68
2022/06/16 03:01:39;;;;;;;10.90;5.00;;;;;;;14.29;68.97;101879.63;5028981;28;20029;-68
2022/06/16 03:04:10;;;;;;;14.23;6.65;;;;;;;14.25;68.73;101886.38;5028943;28;20041;-68
2022/06/16 03:06:35;;;;;;;9.15;5.20;;;;;;;14.22;69.54;101881.41;5028772;28;20033;-68
2022/06/16 03:09:01;;;;;;;11.65;4.50;;;;;;;14.20;69.08;101884.31;5028892;28;20495;-68
2022/06/16 03:11:27;;;;;;;8.13;4.93;;;;;;;14.10;69.55;101872.25;5028804;28;20037;-68
2022/06/16 03:13:53;;;;;;;9.75;5.10;;;;;;;14.13;69.69;101880.75;5028842;28;20025;-68
2022/06/16 03:16:19;;;;;;;7.43;4.75;;;;;;;14.10;69.44;101883.00;5028826;28;20087;-65
2022/06/16 03:18:45;;;;;;;10.10;5.57;;;;;;;14.08;70.48;101880.50;5029283;28;20037;-65
2022/06/16 03:21:11;;;;;;;14.48;6.45;;;;;;;14.10;70.98;101883.81;5032757;28;20064;-65
2022/06/16 03:23:36;;;;;;;13.55;5.03;;;;;;;14.07;71.39;101894.09;5032953;28;20041;-65
2022/06/16 03:26:02;;;;;;;10.10;5.70;;;;;;;14.04;71.17;101892.63;5032827;28;20040;-65
2022/06/16 03:28:27;;;;;;;11.02;6.30;;;;;;;14.08;71.17;101893.91;5032751;28;20111;-65
2022/06/16 03:30:53;;;;;;;9.25;5.55;;;;;;;14.09;71.38;101890.19;5032781;28;20358;-65
2022/06/16 03:33:19;;;;;;;14.52;6.40;;;;;;;14.02;71.98;101879.41;5032587;28;20038;-66
2022/06/16 03:35:45;;;;;;;11.20;5.95;;;;;;;13.97;70.90;101881.03;5032555;28;20425;-65
2022/06/16 03:40:38;;;;;;;12.63;5.78;;;;;;;13.89;71.26;101883.84;5032620;28;20037;-65
2022/06/16 03:43:05;;;;;;;13.35;5.95;;;;;;;13.84;71.79;101894.31;5032455;28;20037;-65
2022/06/16 03:45:31;;;;;;;7.85;4.90;;;;;;;13.71;71.78;101893.19;5032649;28;20029;-65
2022/06/16 03:47:58;;;;;;;8.13;4.85;;;;;;;13.69;71.85;101908.63;5032131;28;20516;-65
2022/06/16 03:50:23;;;;;;;9.82;4.95;;;;;;;13.65;72.22;101909.19;5032272;28;20061;-65
2022/06/16 03:52:48;;;;;;;7.57;4.30;;;;;;;13.62;72.63;101922.97;5032258;28;20063;-65
2022/06/16 03:55:14;;;;;;;9.45;5.47;;;;;;;13.59;72.95;101916.13;5032360;28;20064;-66
2022/06/16 03:57:39;;;;;;;12.05;5.88;;;;;;;13.57;73.55;101928.91;5032169;28;20029;-65
2022/06/16 04:00:07;;;;;;;13.82;5.97;;;;;;;13.56;72.39;101930.75;5032070;28;20025;-65
2022/06/16 04:02:32;;;;;;;7.03;4.80;;;;;;;13.55;73.28;101934.47;5032034;28;20056;-65
2022/06/16 04:04:57;;;;;;;10.13;5.32;;;;;;;13.57;72.90;101921.72;5031943;28;20030;-65
2022/06/16 04:07:23;;;;;;;10.88;4.60;;;;;;;13.58;72.08;101926.03;5032152;28;20468;-65
2022/06/16 04:09:48;;;;;;;9.98;5.38;;;;;;;13.62;72.24;101936.38;5031973;28;20069;-65
2022/06/16 04:12:13;;;;;;;9.43;4.95;;;;;;;13.58;72.15;101939.44;5032258;28;20057;-65
2022/06/16 04:14:39;;;;;;;9.63;5.15;;;;;;;13.61;71.77;101935.56;5031916;28;20083;-65
2022/06/16 04:17:04;;;;;;;10.68;5.95;;;;;;;13.66;72.14;101935.81;5031741;28;20028;-65
2022/06/16 04:19:29;;;;;;;10.30;5.43;;;;;;;13.71;72.52;101936.06;5031598;28;20033;-66
2022/06/16 04:21:55;;;;;;;11.38;5.55;;;;;;;13.73;72.09;101941.25;5031703;28;20034;-65
2022/06/16 04:24:22;;;;;;;11.05;5.55;;;;;;;13.70;71.09;101937.09;5031730;28;20037;-65
2022/06/16 04:26:51;;;;;;;9.45;5.80;;;;;;;13.77;71.08;101935.28;5031619;28;20034;-65
2022/06/16 04:29:18;;;;;;;10.27;4.40;;;;;;;13.88;70.69;101951.91;5030361;28;20526;-65
2022/06/16 04:31:44;;;;;;;13.05;4.93;;;;;;;13.89;69.77;101946.38;5030654;28;20037;-65
2022/06/16 04:34:10;;;;;;;9.20;4.38;;;;;;;13.89;70.64;101946.38;5031451;28;20033;-65
2022/06/16 04:36:36;;;;;;;11.65;5.75;;;;;;;13.91;70.10;101948.84;5031466;28;20055;-65
2022/06/16 04:39:01;;;;;;;7.68;5.00;;;;;;;13.96;70.03;101951.78;5031496;28;20034;-65
2022/06/16 04:41:27;;;;;;;10.40;4.63;;;;;;;14.09;70.49;101959.13;5031344;28;20036;-65
2022/06/16 04:43:52;;;;;;;9.55;4.68;;;;;;;14.36;68.74;101946.78;5031329;28;20033;-65
2022/06/16 04:46:19;;;;;;;9.95;4.68;;;;;;;14.54;68.35;101959.72;5030883;28;20322;-65
2022/06/16 04:48:45;;;;;;;7.45;4.22;;;;;;;14.55;67.73;101962.22;5031160;28;20219;-65
2022/06/16 04:51:11;;;;;;;10.18;4.88;;;;;;;14.47;68.19;101965.00;5031060;28;20033;-65
2022/06/16 04:53:37;;;;;;;11.75;4.45;;;;;;;14.46;68.61;101972.25;5031091;28;20120;-65
2022/06/16 04:56:04;;;;;;;8.70;4.53;;;;;;;14.44;67.77;101973.47;5031030;28;20116;-65
2022/06/16 04:58:30;;;;;;;10.20;4.78;;;;;;;14.44;68.01;101976.97;5031030;28;20032;-65
2022/06/16 05:00:56;;;;;;;9.38;4.43;;;;;;;14.47;68.82;101975.75;5031006;28;20037;-65
2022/06/16 05:03:27;;;;;;;8.55;4.55;;;;;;;14.52;67.68;101983.22;5030977;28;20029;-65
2022/06/16 05:05:54;;;;;;;12.27;6.50;;;;;;;14.71;67.25;101976.38;5030897;28;20531;-65
2022/06/16 05:08:21;;;;;;;12.10;5.65;;;;;;;15.08;66.30;101980.50;5030889;28;20140;-65
2022/06/16 05:10:47;;;;;;;8.63;5.07;;;;;;;15.39;65.66;101977.34;5031265;28;20372;-65
2022/06/16 05:13:13;;;;;;;11.35;5.35;;;;;;;15.34;63.69;101983.31;5030629;28;20040;-65
2022/06/16 05:15:39;;;;;;;8.77;5.05;;;;;;;15.19;64.12;101979.13;5030647;28;20116;-65
2022/06/16 05:18:05;;;;;;;7.22;4.22;;;;;;;15.09;64.59;101985.69;5030685;28;20104;-65
2022/06/16 05:20:31;;;;;;;11.93;5.20;;;;;;;15.09;65.83;102007.19;5029334;28;20036;-65
2022/06/16 05:22:56;;;;;;;10.00;4.65;;;;;;;14.99;63.99;101990.59;5030745;28;20033;-65
2022/06/16 05:25:22;;;;;;;10.30;5.47;;;;;;;15.11;64.10;102007.81;5030493;28;20374;-65
2022/06/16 05:27:47;;;;;;;14.07;6.22;;;;;;;15.13;64.06;102015.69;5030444;28;20078;-65
2022/06/16 05:30:14;;;;;;;7.18;4.30;;;;;;;15.17;64.27;102024.16;5030195;28;20120;-65
2022/06/16 05:32:39;;;;;;;9.25;3.83;;;;;;;15.20;62.70;102023.78;5030344;28;20408;-65
2022/06/16 05:35:05;;;;;;;6.53;3.80;;;;;;;15.26;63.53;102017.59;5030340;28;20027;-66
2022/06/16 05:37:31;;;;;;;8.32;4.28;;;;;;;15.31;60.19;102023.22;5030383;28;20724;-65
2022/06/16 05:39:56;;;;;;;11.13;4.20;;;;;;;15.36;61.01;102018.06;5030259;28;20078;-65
2022/06/16 05:42:21;;;;;;;7.68;4.43;;;;;;;15.45;61.06;102019.56;5030248;28;20029;-65
2022/06/16 05:44:47;;;;;;;8.02;3.92;;;;;;;15.49;60.65;102017.31;5030001;28;20022;-65
2022/06/16 05:47:12;;;;;;;7.75;3.78;;;;;;;15.55;60.97;102030.75;5030068;28;20616;-65
2022/06/16 05:49:42;;;;;;;11.07;4.13;;;;;;;15.59;60.17;102028.53;5030235;28;20116;-66
2022/06/16 05:52:20;;;;;;;7.82;4.07;;;;;;;15.63;59.79;102037.81;5029946;28;20033;-65
2022/06/16 05:54:46;;;;;;;7.15;4.38;;;;;;;15.65;58.83;102030.41;5030017;28;20488;-65
2022/06/16 05:57:12;;;;;;;5.85;3.10;;;;;;;15.69;59.02;102039.75;5029831;28;20026;-65
2022/06/16 05:59:39;;;;;;;6.82;4.13;;;;;;;15.83;58.66;102048.69;5030003;28;20075;-65
2022/06/16 06:02:07;;;;;;;6.70;3.85;;;;;;;16.20;58.18;102046.50;5029909;28;20492;-65
2022/06/16 06:04:33;;;;;;;5.03;3.53;;;;;;;16.69;57.43;102044.44;5029859;28;20113;-65
2022/06/16 06:06:59;;;;;;;4.03;2.97;;;;;;;17.02;54.42;102044.47;5029633;28;20080;-65
2022/06/16 06:18:00;;;;;;;11.02;3.70;;;;;;;16.31;55.10;102048.59;5029883;28;20044;-65
2022/06/16 06:20:25;;;;;;;7.45;2.95;;;;;;;16.30;55.89;102051.50;5029575;28;20041;-66
2022/06/16 06:22:51;;;;;;;9.73;3.28;;;;;;;16.33;56.77;102056.47;5029504;28;20476;-66
2022/06/16 06:25:16;;;;;;;7.30;3.28;;;;;;;16.34;56.08;102050.03;5029409;28;20033;-65
2022/06/16 06:27:44;;;;;;;3.70;2.80;;;;;;;16.38;57.07;102045.91;5029428;28;20091;-65
2022/06/16 06:30:19;;;;;;;8.25;3.65;;;;;;;16.39;55.83;102051.06;5029500;28;20469;-65
2022/06/16 06:32:45;;;;;;;7.78;3.55;;;;;;;16.45;55.49;102060.19;5029376;28;20029;-65
2022/06/16 06:35:12;;;;;;;6.00;3.17;;;;;;;16.39;54.65;102051.06;5029323;28;20033;-66
2022/06/16 06:37:38;;;;;;;5.70;2.72;;;;;;;16.38;55.43;102054.00;5029301;28;20036;-65
2022/06/16 06:40:04;;;;;;;5.57;3.10;;;;;;;16.39;55.75;102048.38;5029446;28;20021;-65
2022/06/16 06:42:30;;;;;;;9.70;4.57;;;;;;;16.44;56.34;102059.38;5029236;28;20044;-64
2022/06/16 06:44:56;;;;;;;4.65;2.88;;;;;;;16.47;55.08;102055.44;5028933;28;20034;-65
2022/06/16 06:47:28;;;;;;;7.15;2.72;;;;;;;16.49;54.52;102055.25;5028755;28;20539;-65
2022/06/16 06:49:54;;;;;;;6.25;2.85;;;;;;;16.47;54.87;102055.44;5029002;28;20025;-65
2022/06/16 06:52:20;;;;;;;7.13;2.90;;;;;;;16.50;54.45;102057.72;5028910;28;20043;-65
2022/06/16 06:54:45;;;;;;;16.45;2.88;;;;;;;16.54;55.51;102068.91;5028606;28;20036;-65
2022/06/16 06:57:19;;;;;;;4.30;2.45;;;;;;;16.60;53.39;102082.38;5027723;28;20462;-65
2022/06/16 06:59:44;;;;;;;4.57;2.33;;;;;;;16.63;53.28;102075.75;5029443;28;20044;-65
2022/06/16 07:02:14;;;;;;;2.97;2.20;;;;;;;16.69;53.71;102082.16;5028711;28;20025;-65
2022/06/16 07:04:40;;;;;;;7.90;2.38;;;;;;;16.75;53.68;102084.06;5028628;28;20045;-65
2022/06/16 07:07:06;;;;;;;5.70;2.63;;;;;;;16.82;53.05;102090.28;5028980;28;20037;-65
2022/06/16 07:09:32;;;;;;;5.85;2.08;;;;;;;16.88;51.82;102089.47;5025715;28;20021;-64
2022/06/16 07:11:57;;;;;;;3.10;1.95;;;;;;;16.92;52.25;102088.00;5025300;28;20040;-68
2022/06/16 07:14:23;;;;;;;2.38;1.88;;;;;;;16.99;51.13;102096.09;5027879;28;20065;-65
2022/06/16 07:16:50;;;;;;;4.18;2.65;;;;;;;17.00;50.82;102101.28;5029390;28;20044;-64
2022/06/16 07:19:17;;;;;;;5.38;1.95;;;;;;;17.01;50.22;102096.72;5029121;28;20026;-65
2022/06/16 07:21:42;;;;;;;4.72;2.05;;;;;;;17.02;50.33;102101.06;5027880;28;20041;-66
2022/06/16 07:24:07;;;;;;;9.27;3.03;;;;;;;17.06;50.58;102099.63;5027670;28;20087;-65
2022/06/16 07:26:33;;;;;;;5.20;2.28;;;;;;;17.15;52.56;102105.59;5029067;28;20392;-66
2022/06/16 07:29:00;;;;;;;8.55;2.40;;;;;;;17.16;50.17;102105.41;5028916;28;20431;-65
2022/06/16 07:31:27;;;;;;;3.45;1.83;;;;;;;17.22;52.57;102107.25;5029055;28;20060;-65
2022/06/16 07:33:53;;;;;;;4.38;2.13;;;;;;;17.28;52.33;102109.09;5029045;28;20480;-65
2022/06/16 07:36:18;;;;;;;2.25;1.85;;;;;;;17.40;53.44;102111.19;5027572;28;20040;-65
2022/06/16 07:38:43;;;;;;;2.08;1.70;;;;;;;17.43;52.59;102113.44;5029000;28;20030;-65
2022/06/16 07:43:54;;;;;;;5.25;2.10;;;;;;;17.57;50.40;102130.41;5029050;28;20095;-66
2022/06/16 07:46:19;;;;;;;5.05;2.63;;;;;;;17.55;51.03;102136.00;5028649;28;20101;-65
2022/06/16 07:48:45;;;;;;;2.85;2.00;;;;;;;17.61;49.83;102143.28;5028699;28;20144;-65
2022/06/16 07:51:10;;;;;;;6.13;3.13;;;;;;;17.71;50.02;102150.91;5028775;28;20477;-65
2022/06/16 07:53:36;;;;;;;3.75;2.28;;;;;;;17.73;48.71;102154.22;5028901;28;20434;-65
2022/06/16 07:56:01;;;;;;;6.07;2.00;;;;;;;17.69;48.00;102145.75;5028832;28;20511;-65
2022/06/16 07:58:31;;;;;;;6.50;1.90;;;;;;;17.74;49.07;102148.63;5028717;28;20543;-65
2022/06/16 08:00:57;;;;;;;5.75;2.67;;;;;;;17.84;47.64;102148.22;5027317;28;20021;-66
2022/06/16 08:03:26;;;;;;;3.15;1.75;;;;;;;18.03;48.79;102154.59;5028739;28;20037;-64
2022/06/16 08:05:56;;;;;;;2.17;1.55;;;;;;;18.56;47.04;102148.88;5029220;28;20033;-65
2022/06/16 08:08:23;;;;;;;2.45;1.73;;;;;;;19.66;45.29;102150.22;5032344;28;20987;-66
2022/06/16 08:10:52;;;;;;;6.68;3.33;;;;;;;20.94;43.23;102149.13;5032287;28;20037;-66
2022/06/16 08:13:19;;;;;;;3.35;2.35;;;;;;;22.15;38.38;102147.69;5032106;28;20041;-65
2022/06/16 08:15:45;;;;;;;5.53;1.90;;;;;;;23.37;36.50;102144.34;5032056;28;20032;-66
2022/06/16 08:18:14;;;;;;;4.00;2.22;;;;;;;24.06;35.03;102153.94;5032086;28;20048;-65
2022/06/16 08:20:41;;;;;;;7.28;2.88;;;;;;;24.87;34.45;102147.63;5032210;28;20022;-66
2022/06/16 08:23:07;;;;;;;1.80;1.70;;;;;;;25.89;30.83;102158.38;5031959;28;20989;-65
2022/06/16 08:25:33;;;;;;;7.20;1.63;;;;;;;26.71;30.71;102155.81;5031921;28;20061;-66
2022/06/16 08:28:02;;;;;;;3.65;1.67;;;;;;;28.09;28.80;102155.47;5031895;28;20061;-65
2022/06/16 08:30:29;;;;;;;3.40;2.10;;;;;;;28.93;27.76;102160.91;5031977;28;20033;-66
2022/06/16 08:32:55;;;;;;;3.95;1.70;;;;;;;29.53;25.92;102166.03;5031912;28;20469;-66
2022/06/16 08:35:20;;;;;;;5.22;1.90;;;;;;;30.38;25.03;102167.16;5031884;28;20127;-66
2022/06/16 08:37:45;;;;;;;5.28;1.50;;;;;;;30.73;24.79;102165.75;5031800;28;20087;-65
2022/06/16 08:40:12;;;;;;;3.13;1.90;;;;;;;31.17;24.81;102162.50;5031748;28;20029;-66
2022/06/16 08:42:43;;;;;;;4.53;2.35;;;;;;;31.64;23.56;102156.91;5031836;28;20037;-66
2022/06/16 08:45:30;;;;;;;4.05;2.35;;;;;;;31.59;23.84;102157.03;5031673;28;20150;-66
2022/06/16 08:48:14;;;;;;;5.88;2.15;;;;;;;31.52;25.79;102145.56;5031393;28;20054;-66
2022/06/16 08:51:00;;;;;;;1.63;1.48;;;;;;;31.20;26.25;102128.84;5031514;28;20021;-66
2022/06/16 08:53:54;;;;;;;4.32;1.95;;;;;;;31.79;25.12;102134.50;5031478;28;20031;-66
2022/06/16 08:56:28;;;;;;;4.45;2.20;;;;;;;31.74;23.47;102136.56;5031418;28;20026;-66
2022/06/16 08:59:04;;;;;;;5.18;2.15;;;;;;;31.49;24.27;102141.50;5031256;28;20044;-66
2022/06/16 09:01:38;;;;;;;3.10;1.60;;;;;;;31.16;23.34;102141.56;5031432;28;20025;-66
2022/06/16 09:04:18;;;;;;;3.15;1.80;;;;;;;30.32;25.31;102147.16;5031394;28;20040;-66
2022/06/16 09:06:47;;;;;;;2.95;1.55;;;;;;;29.30;26.49;102157.53;5031287;28;20603;-66
2022/06/16 09:12:43;;;;;;;7.43;2.13;;;;;;;25.67;31.35;102175.72;5031125;28;20675;-66
2022/06/16 09:15:22;;;;;;;6.30;2.38;;;;;;;24.35;32.90;102170.88;5029372;28;20481;-65
2022/06/16 09:18:18;;;;;;;2.33;2.10;;;;;;;23.38;34.37;102175.94;5030629;28;20922;-66
2022/06/16 09:21:04;;;;;;;3.05;2.20;;;;;;;22.65;36.18;102191.31;5030923;28;20147;-66
2022/06/16 09:23:50;;;;;;;4.95;2.72;;;;;;;22.26;37.17;102182.16;5030862;28;20029;-66
2022/06/16 09:26:50;;;;;;;2.38;1.92;;;;;;;21.99;37.69;102184.59;5026733;28;20433;-66
2022/06/16 09:29:26;;;;;;;3.45;2.05;;;;;;;21.84;37.83;102180.50;5029572;28;20452;-66
2022/06/16 09:31:59;;;;;;;4.35;2.20;;;;;;;21.60;37.98;102196.00;5030702;28;20472;-65
2022/06/16 09:34:36;;;;;;;6.57;2.50;;;;;;;21.43;37.89;102197.78;5030603;28;20965;-66
2022/06/16 09:37:19;;;;;;;2.20;1.90;;;;;;;21.42;39.40;102196.13;5030682;28;20029;-66
2022/06/16 09:39:58;;;;;;;4.85;3.67;;;;;;;21.55;39.51;102204.03;5030493;28;20025;-66
2022/06/16 09:42:35;;;;;;;3.30;2.45;;;;;;;21.55;39.67;102197.78;5030486;28;20019;-66
2022/06/16 09:45:24;;;;;;;3.38;2.22;;;;;;;21.52;39.89;102198.25;5030534;28;20029;-66
2022/06/16 09:48:10;;;;;;;4.75;2.70;;;;;;;21.47;40.72;102195.44;5030264;28;20045;-66
2022/06/16 09:50:55;;;;;;;4.50;2.42;;;;;;;21.59;40.58;102198.97;5030192;28;20575;-66
2022/06/16 09:53:35;;;;;;;3.58;2.35;;;;;;;21.62;40.45;102195.78;5029050;28;20021;-66
2022/06/16 09:56:03;;;;;;;6.40;2.65;;;;;;;21.61;39.42;102186.81;5030278;28;20108;-66
2022/06/16 09:58:38;;;;;;;5.07;3.17;;;;;;;21.44;40.23;102194.84;5030261;28;20079;-65
2022/06/16 10:01:08;;;;;;;4.57;2.30;;;;;;;21.51;40.71;102199.31;5030132;28;20065;-66
2022/06/16 10:03:37;;;;;;;5.68;2.40;;;;;;;21.63;39.79;102189.25;5030285;28;20040;-65
2022/06/16 10:06:25;;;;;;;6.05;3.35;;;;;;;21.75;41.13;102192.81;5030130;28;20045;-65
2022/06/16 10:08:55;;;;;;;6.57;2.40;;;;;;;21.76;40.95;102194.44;5029948;28;20526;-66
2022/06/16 10:11:59;;;;;;;5.65;2.75;;;;;;;21.82;41.20;102189.94;5029939;28;20473;-65
2022/06/16 10:14:46;;;;;;;5.80;2.80;;;;;;;21.88;40.68;102197.16;5028755;28;20091;-66
2022/06/16 10:17:16;;;;;;;4.63;2.22;;;;;;;22.03;41.71;102194.75;5030059;28;20440;-65
2022/06/16 10:19:44;;;;;;;5.25;2.50;;;;;;;22.08;41.29;102197.53;5029899;28;20452;-65
2022/06/16 10:22:13;;;;;;;5.60;2.63;;;;;;;22.24;43.44;102201.44;5029873;28;20104;-66
2022/06/16 10:24:45;;;;;;;5.20;2.70;;;;;;;22.16;40.00;102196.34;5029824;28;20025;-66
2022/06/16 10:27:13;;;;;;;8.90;3.33;;;;;;;22.09;40.33;102190.25;5029693;28;20087;-66
2022/06/16 10:29:51;;;;;;;2.78;2.40;;;;;;;22.20;42.60;102192.13;5028973;28;20345;-66
2022/06/16 10:32:17;;;;;;;4.80;2.40;;;;;;;22.32;41.92;102192.06;5029631;28;20538;-66
2022/06/16 10:34:42;;;;;;;8.30;2.80;;;;;;;22.42;40.46;102194.16;5029618;28;20037;-66
2022/06/16 10:37:14;;;;;;;4.22;2.40;;;;;;;22.50;42.18;102172.00;5029589;28;20044;-65
2022/06/16 10:39:55;;;;;;;6.85;3.00;;;;;;;22.66;42.87;102182.09;5029234;28;20021;-65
2022/06/16 10:42:40;;;;;;;8.43;2.80;;;;;;;22.75;41.44;102185.25;5029206;28;20037;-65
2022/06/16 10:45:05;;;;;;;4.45;3.00;;;;;;;22.68;40.36;102193.53;5029073;28;20040;-65
2022/06/16 10:47:39;;;;;;;6.65;2.33;;;;;;;22.62;40.50;102186.38;5028922;28;20057;-66
2022/06/16 10:50:07;;;;;;;4.18;2.50;;;;;;;22.61;40.80;102187.47;5029017;28;20073;-66
2022/06/16 10:52:38;;;;;;;4.45;2.90;;;;;;;22.62;41.26;102197.25;5029147;28;20041;-65
2022/06/16 10:55:19;;;;;;;5.57;2.42;;;;;;;22.66;40.89;102197.56;5029089;28;20469;-66
2022/06/16 10:57:56;;;;;;;5.17;2.67;;;;;;;22.86;46.26;102208.81;5028793;28;20029;-66
2022/06/16 11:00:23;;;;;;;5.03;2.60;;;;;;;22.90;41.18;102201.00;5027530;28;20473;-65
2022/06/16 11:03:06;;;;;;;6.30;3.05;;;;;;;22.80;40.55;102200.84;5027790;28;20029;-66
2022/06/16 11:05:47;;;;;;;3.75;2.80;;;;;;;22.85;40.48;102203.66;5028448;28;20064;-66
2022/06/16 11:08:14;;;;;;;6.95;3.63;;;;;;;22.91;40.30;102200.75;5028866;28;20045;-66
2022/06/16 11:10:49;;;;;;;7.35;2.80;;;;;;;22.99;45.17;102196.81;5028991;28;20033;-66
2022/06/16 11:13:19;;;;;;;5.90;2.92;;;;;;;23.03;39.75;102187.09;5028829;28;20108;-66
2022/06/16 11:15:50;;;;;;;5.30;3.05;;;;;;;23.03;41.94;102191.69;5028819;28;20132;-66
2022/06/16 11:18:21;;;;;;;5.13;2.47;;;;;;;23.01;41.41;102199.31;5028791;28;20052;-66
2022/06/16 11:20:50;;;;;;;6.50;3.13;;;;;;;23.17;40.66;102202.03;5029085;28;20392;-66
2022/06/16 11:23:24;;;;;;;2.55;2.35;;;;;;;23.22;41.24;102208.63;5028679;28;20021;-66
2022/06/16 11:26:20;;;;;;;5.75;2.90;;;;;;;23.21;40.81;102190.63;5028835;28;20439;-69
2022/06/16 11:28:55;;;;;;;4.57;3.38;;;;;;;23.23;39.83;102194.75;5028177;28;20038;-69
2022/06/16 11:31:24;;;;;;;4.18;2.83;;;;;;;23.26;40.62;102183.34;5028708;28;20049;-69
2022/06/16 11:34:12;;;;;;;4.55;3.10;;;;;;;23.43;41.48;102179.81;5028652;28;20473;-69
2022/06/16 11:37:04;;;;;;;4.57;3.17;;;;;;;23.50;40.83;102183.16;5028754;28;20021;-69
2022/06/16 11:39:42;;;;;;;3.75;2.70;;;;;;;23.50;41.92;102177.72;5028772;28;20026;-69
2022/06/16 11:42:23;;;;;;;5.78;2.70;;;;;;;23.50;41.79;102177.72;5032491;28;20036;-69
2022/06/16 11:45:07;;;;;;;7.18;3.00;;;;;;;23.57;41.08;102183.81;5032478;28;20033;-69
2022/06/16 11:47:59;;;;;;;7.60;2.92;;;;;;;23.63;40.26;102191.81;5032229;28;20056;-69
2022/06/16 11:50:43;;;;;;;5.85;3.33;;;;;;;23.47;39.81;102183.66;5032313;28;20120;-70
2022/06/16 11:53:16;;;;;;;8.10;3.30;;;;;;;23.39;38.98;102179.47;5032210;28;20017;-69
2022/06/16 11:56:10;;;;;;;4.13;2.55;;;;;;;23.44;38.71;102184.97;5032124;28;20028;-69
2022/06/16 11:58:53;;;;;;;6.32;3.00;;;;;;;23.40;39.79;102181.94;5032176;28;20087;-69
2022/06/16 12:01:29;;;;;;;9.15;3.58;;;;;;;23.32;40.93;102166.03;5032151;28;20029;-68
2022/06/16 12:04:10;;;;;;;7.00;3.88;;;;;;;23.45;41.28;102173.03;5031946;28;20086;-69